TimeEST,TemperatureF,Dew PointF,Humidity,Sea Level PressureIn,VisibilityMPH,Wind Direction,Wind SpeedMPH,Gust SpeedMPH,PrecipitationIn,Events,Conditions,WindDirDegrees,DateUTC
12:15 AM,37.4,30.2,75,30.31,7.0,SSE,5.8,-,0.03,Rain,Rain,150,2013-02-22 05:15:00
12:35 AM,35.6,32.0,87,30.32,5.0,SSE,4.6,-,0.08,Rain,Rain,150,2013-02-22 05:35:00
12:55 AM,33.8,32.0,93,30.32,7.0,East,5.8,-,0.11,Snow,Light Snow,100,2013-02-22 05:55:00
1:15 AM,33.8,32.0,93,30.32,5.0,ENE,3.5,-,0.02,Rain,Light Rain,70,2013-02-22 06:15:00
1:35 AM,33.8,32.0,93,30.32,4.0,ENE,3.5,-,0.04,Rain,Rain,60,2013-02-22 06:35:00
1:55 AM,32.0,32.0,100,30.33,4.0,NNE,5.8,-,0.07,Snow,Light Snow,20,2013-02-22 06:55:00
2:15 AM,32.0,32.0,100,30.32,1.5,ENE,3.5,-,0.01,Snow,Light Snow,60,2013-02-22 07:15:00
2:35 AM,32.0,32.0,100,30.32,1.2,NE,4.6,-,0.01,Snow,Light Snow,40,2013-02-22 07:35:00
2:55 AM,32.0,32.0,100,30.30,1.2,NE,5.8,-,0.01,Snow,Light Snow,40,2013-02-22 07:55:00
3:15 AM,32.0,32.0,100,30.29,2.5,East,3.5,-,N/A,Snow,Light Snow,90,2013-02-22 08:15:00
3:35 AM,32.0,32.0,100,30.27,3.0,ESE,3.5,-,N/A,Rain,Light Rain,110,2013-02-22 08:35:00
3:55 AM,32.0,32.0,100,30.30,3.0,Calm,Calm,-,N/A,,Light Drizzle,0,2013-02-22 08:55:00
4:15 AM,32.0,32.0,100,30.28,1.8,NNW,3.5,-,N/A,Rain,Rain,330,2013-02-22 09:15:00
4:35 AM,32.0,32.0,100,30.29,4.0,Calm,Calm,-,N/A,,Light Drizzle,0,2013-02-22 09:35:00
4:55 AM,32.0,32.0,100,30.26,4.0,NNE,4.6,-,N/A,,Overcast,30,2013-02-22 09:55:00
5:15 AM,32.0,32.0,100,30.27,4.0,Calm,Calm,-,N/A,,Overcast,0,2013-02-22 10:15:00
5:35 AM,32.0,32.0,100,30.27,3.0,Calm,Calm,-,N/A,,Overcast,0,2013-02-22 10:35:00
5:55 AM,32.0,32.0,100,30.28,3.0,Calm,Calm,-,N/A,,Overcast,0,2013-02-22 10:55:00
6:15 AM,32.0,32.0,100,30.30,3.0,Calm,Calm,-,N/A,,Drizzle,0,2013-02-22 11:15:00
6:35 AM,32.0,32.0,100,30.30,3.0,Calm,Calm,-,0.01,,Drizzle,0,2013-02-22 11:35:00
6:55 AM,32.0,32.0,100,30.31,2.5,Calm,Calm,-,0.01,Rain,Rain,0,2013-02-22 11:55:00
7:15 AM,32.0,32.0,100,30.31,1.8,Calm,Calm,-,N/A,Rain,Light Rain,0,2013-02-22 12:15:00
7:35 AM,32.0,32.0,100,30.31,1.2,Calm,Calm,-,N/A,Rain,Rain,0,2013-02-22 12:35:00
7:55 AM,32.0,32.0,100,30.32,1.0,Calm,Calm,-,N/A,Rain,Rain,0,2013-02-22 12:55:00
8:15 AM,32.0,32.0,100,30.31,1.0,ENE,3.5,-,0.01,,Overcast,60,2013-02-22 13:15:00
8:35 AM,32.0,32.0,100,30.31,1.0,ENE,3.5,-,0.03,,Overcast,70,2013-02-22 13:35:00
8:55 AM,32.0,32.0,100,30.31,3.0,East,4.6,-,0.05,,Overcast,80,2013-02-22 13:55:00
9:15 AM,32.0,32.0,100,30.30,3.0,Calm,Calm,-,0.02,,Overcast,0,2013-02-22 14:15:00
9:35 AM,32.0,32.0,100,30.30,4.0,East,3.5,-,0.05,,Overcast,90,2013-02-22 14:35:00
9:55 AM,32.0,32.0,100,30.30,4.0,East,3.5,-,0.06,,Overcast,90,2013-02-22 14:55:00
10:15 AM,32.0,32.0,100,30.30,5.0,ESE,3.5,-,0.01,,Overcast,110,2013-02-22 15:15:00
10:35 AM,32.0,32.0,100,30.30,4.0,Calm,Calm,-,0.01,,Overcast,0,2013-02-22 15:35:00
10:55 AM,32.0,32.0,100,30.30,4.0,ESE,3.5,-,0.01,,Overcast,110,2013-02-22 15:55:00
11:15 AM,32.0,32.0,100,30.30,4.0,Calm,Calm,-,N/A,,Overcast,0,2013-02-22 16:15:00
11:35 AM,32.0,32.0,100,30.30,5.0,Calm,Calm,-,N/A,,Overcast,0,2013-02-22 16:35:00
11:55 AM,32.0,32.0,100,30.29,4.0,ESE,4.6,-,N/A,,Overcast,110,2013-02-22 16:55:00
12:15 PM,32.0,32.0,100,30.28,4.0,ESE,3.5,-,N/A,,Overcast,110,2013-02-22 17:15:00
12:35 PM,33.8,32.0,93,30.27,4.0,Calm,Calm,-,N/A,,Overcast,0,2013-02-22 17:35:00
12:55 PM,33.8,33.8,100,30.26,4.0,Calm,Calm,-,N/A,,Overcast,0,2013-02-22 17:55:00
1:15 PM,33.8,32.0,93,30.26,5.0,Calm,Calm,-,N/A,,Overcast,0,2013-02-22 18:15:00
1:35 PM,33.8,33.8,100,30.25,4.0,NE,3.5,-,N/A,,Overcast,40,2013-02-22 18:35:00
2:15 PM,33.8,33.8,100,30.22,3.0,NE,4.6,-,N/A,,Overcast,40,2013-02-22 19:15:00
2:35 PM,33.8,32.0,93,30.23,4.0,NE,3.5,-,N/A,,Overcast,50,2013-02-22 19:35:00
2:55 PM,33.8,32.0,93,30.23,3.0,Calm,Calm,-,N/A,,Overcast,0,2013-02-22 19:55:00
3:15 PM,33.8,33.8,100,30.22,3.0,Calm,Calm,-,N/A,,Overcast,0,2013-02-22 20:15:00
3:35 PM,33.8,33.8,100,30.22,3.0,Calm,Calm,-,N/A,,Overcast,0,2013-02-22 20:35:00
3:55 PM,33.8,33.8,100,30.22,1.5,East,4.6,-,N/A,,Light Drizzle,80,2013-02-22 20:55:00
4:15 PM,33.8,33.8,100,30.22,1.5,East,4.6,-,N/A,,Overcast,90,2013-02-22 21:15:00
4:35 PM,33.8,33.8,100,30.22,1.2,East,4.6,-,N/A,,Overcast,80,2013-02-22 21:35:00
4:55 PM,33.8,33.8,100,30.20,1.2,East,4.6,-,N/A,,Overcast,90,2013-02-22 21:55:00
5:15 PM,33.8,33.8,100,30.22,1.5,NNE,4.6,-,N/A,,Overcast,20,2013-02-22 22:15:00
5:35 PM,33.8,33.8,100,30.21,1.2,ENE,3.5,-,N/A,,Overcast,60,2013-02-22 22:35:00
5:55 PM,33.8,33.8,100,30.20,1.5,East,3.5,-,N/A,,Overcast,80,2013-02-22 22:55:00
6:15 PM,33.8,33.8,100,30.20,1.8,East,3.5,-,N/A,,Overcast,80,2013-02-22 23:15:00
6:35 PM,33.8,33.8,100,30.21,1.8,NE,3.5,-,N/A,,Overcast,50,2013-02-22 23:35:00
6:55 PM,33.8,33.8,100,30.22,2.0,ENE,3.5,-,N/A,,Overcast,70,2013-02-22 23:55:00
7:15 PM,32.0,32.0,100,30.20,2.0,East,3.5,-,N/A,,Overcast,80,2013-02-23 00:15:00
7:35 PM,32.0,32.0,100,30.21,2.5,Calm,Calm,-,N/A,,Overcast,0,2013-02-23 00:35:00
7:55 PM,32.0,32.0,100,30.19,3.0,East,3.5,-,0.01,,Overcast,90,2013-02-23 00:55:00
8:15 PM,33.8,33.8,100,30.20,2.0,East,3.5,-,N/A,,Overcast,90,2013-02-23 01:15:00
8:35 PM,32.0,32.0,100,30.22,2.5,Calm,Calm,-,N/A,,Overcast,0,2013-02-23 01:35:00
8:55 PM,32.0,32.0,100,30.20,2.0,Calm,Calm,-,N/A,,Overcast,0,2013-02-23 01:55:00
9:15 PM,32.0,32.0,100,30.20,2.0,Calm,Calm,-,N/A,,Overcast,0,2013-02-23 02:15:00
9:35 PM,32.0,32.0,100,30.20,2.0,East,3.5,-,N/A,,Overcast,90,2013-02-23 02:35:00
9:55 PM,32.0,32.0,100,30.20,2.5,Calm,Calm,-,N/A,,Overcast,0,2013-02-23 02:55:00
10:15 PM,32.0,32.0,100,30.20,3.0,ENE,4.6,-,N/A,,Overcast,70,2013-02-23 03:15:00
10:35 PM,32.0,32.0,100,30.20,2.5,NE,3.5,-,N/A,,Overcast,40,2013-02-23 03:35:00
10:55 PM,32.0,32.0,100,30.18,2.0,Calm,Calm,-,N/A,,Overcast,0,2013-02-23 03:55:00
11:15 PM,32.0,32.0,100,30.16,1.8,East,3.5,-,N/A,,Overcast,90,2013-02-23 04:15:00
11:35 PM,32.0,32.0,100,30.15,0.8,Calm,Calm,-,N/A,,Overcast,0,2013-02-23 04:35:00
11:55 PM,32.0,32.0,100,30.16,1.2,Calm,Calm,-,N/A,,Overcast,0,2013-02-23 04:55:00